Time;durP1;ratioP1;P1;durP2;ratioP2;P2;SDS_P1;SDS_P2;PMS_P1;PMS_P2;Temp;Humidity;BMP_temperature;BMP_pressure;BME280_temperature;BME280_humidity;BME280_pressure;Samples;Min_cycle;Max_cycle;Signal;HPM_P1;HPM_P2
2021/06/09 00:01:33;;;;;;;18.77;17.17;;;;;;;;;;5077510;28;20024;-61
2021/06/09 00:03:58;;;;;;;19.23;17.42;;;;;;;;;;5092923;28;20491;-60
2021/06/09 00:06:23;;;;;;;19.30;17.48;;;;;;;;;;5087919;28;20013;-61
2021/06/09 00:08:48;;;;;;;18.95;17.00;;;;;;;;;;5070743;28;20502;-61
2021/06/09 00:11:14;;;;;;;18.42;16.70;;;;;;;;;;5073372;28;20135;-60
2021/06/09 00:13:39;;;;;;;16.92;15.45;;;;;;;;;;5072063;28;20036;-60
2021/06/09 00:16:11;;;;;;;16.48;14.98;;;;;;;;;;5073274;28;20091;-60
2021/06/09 00:18:37;;;;;;;18.00;16.40;;;;;;;;;;5050685;28;20112;-60
2021/06/09 00:21:02;;;;;;;16.33;14.93;;;;;;;;;;5055909;28;20121;-60
2021/06/09 00:23:29;;;;;;;16.27;14.77;;;;;;;;;;5073060;28;20020;-61
2021/06/09 00:25:56;;;;;;;15.52;13.98;;;;;;;;;;5071934;28;20019;-61
2021/06/09 00:28:21;;;;;;;16.00;14.60;;;;;;;;;;5069944;28;20099;-61
2021/06/09 00:30:47;;;;;;;17.13;15.27;;;;;;;;;;5073184;28;20528;-60
2021/06/09 00:33:12;;;;;;;16.70;15.20;;;;;;;;;;5072044;28;20563;-60
2021/06/09 00:35:37;;;;;;;15.88;14.50;;;;;;;;;;5088415;28;20091;-61
2021/06/09 00:38:03;;;;;;;16.27;14.95;;;;;;;;;;5072695;28;20475;-61
2021/06/09 00:40:29;;;;;;;17.13;15.73;;;;;;;;;;5072436;28;20098;-61
2021/06/09 00:43:21;;;;;;;16.90;15.40;;;;;;;;;;5072862;28;20021;-60
2021/06/09 00:45:55;;;;;;;16.92;15.38;;;;;;;;;;5071756;28;20040;-60
2021/06/09 00:48:25;;;;;;;17.98;16.27;;;;;;;;;;5068824;28;20024;-61
2021/06/09 00:50:50;;;;;;;16.55;15.10;;;;;;;;;;5071862;28;20031;-61
2021/06/09 00:53:28;;;;;;;18.35;16.55;;;;;;;;;;5072594;28;20501;-60
2021/06/09 00:55:54;;;;;;;18.80;17.05;;;;;;;;;;5071434;28;20134;-60
2021/06/09 00:58:20;;;;;;;18.30;16.55;;;;;;;;;;5069259;28;20028;-60
2021/06/09 01:00:45;;;;;;;18.42;16.63;;;;;;;;;;5071156;28;20108;-61
2021/06/09 01:03:11;;;;;;;18.05;16.27;;;;;;;;;;5077100;28;20013;-61
2021/06/09 01:05:37;;;;;;;18.60;16.90;;;;;;;;;;5072550;28;20021;-61
2021/06/09 01:08:03;;;;;;;18.77;16.88;;;;;;;;;;5069304;28;20080;-63
2021/06/09 01:10:28;;;;;;;20.55;18.45;;;;;;;;;;5072142;28;20016;-60
2021/06/09 01:12:55;;;;;;;19.95;17.83;;;;;;;;;;5072254;28;20480;-60
2021/06/09 01:15:20;;;;;;;18.23;16.58;;;;;;;;;;5071473;28;20027;-61
2021/06/09 01:17:46;;;;;;;18.50;16.73;;;;;;;;;;5067486;28;20020;-60
2021/06/09 01:20:11;;;;;;;19.23;17.48;;;;;;;;;;5071766;28;20020;-62
2021/06/09 01:22:36;;;;;;;19.52;17.73;;;;;;;;;;5071443;28;20026;-60
2021/06/09 01:25:03;;;;;;;19.30;17.60;;;;;;;;;;5071188;28;20031;-60
2021/06/09 01:27:30;;;;;;;19.63;17.92;;;;;;;;;;5078217;28;20376;-60
2021/06/09 01:29:55;;;;;;;18.98;17.25;;;;;;;;;;5072410;28;20016;-60
2021/06/09 01:32:20;;;;;;;17.67;16.17;;;;;;;;;;5072129;28;20120;-61
2021/06/09 01:34:45;;;;;;;20.15;18.33;;;;;;;;;;5073116;28;20190;-62
2021/06/09 01:37:11;;;;;;;19.35;17.40;;;;;;;;;;5069278;28;20031;-60
2021/06/09 01:39:36;;;;;;;18.80;17.17;;;;;;;;;;5071563;28;20072;-60
2021/06/09 01:42:01;;;;;;;19.17;17.38;;;;;;;;;;5069839;28;20533;-60
2021/06/09 01:44:26;;;;;;;19.15;17.48;;;;;;;;;;5071605;28;20024;-60
2021/06/09 01:46:52;;;;;;;19.75;17.85;;;;;;;;;;5067839;28;20016;-60
2021/06/09 01:49:17;;;;;;;17.70;16.08;;;;;;;;;;5072118;28;20023;-60
2021/06/09 01:51:43;;;;;;;18.23;16.63;;;;;;;;;;5070361;28;20017;-60
2021/06/09 01:54:10;;;;;;;17.25;15.73;;;;;;;;;;5070512;28;20021;-60
2021/06/09 01:56:36;;;;;;;19.30;17.38;;;;;;;;;;5070968;28;20032;-61
2021/06/09 01:59:21;;;;;;;17.85;16.25;;;;;;;;;;5070492;28;20020;-60
2021/06/09 02:01:47;;;;;;;16.33;14.93;;;;;;;;;;5100398;28;20379;-60
2021/06/09 02:04:13;;;;;;;18.23;16.52;;;;;;;;;;5071664;28;20024;-60
2021/06/09 02:06:39;;;;;;;17.15;15.63;;;;;;;;;;5070503;28;20027;-61
2021/06/09 02:09:05;;;;;;;18.13;16.52;;;;;;;;;;5070609;28;20021;-60
2021/06/09 02:11:30;;;;;;;18.65;17.05;;;;;;;;;;5070979;28;20400;-60
2021/06/09 02:13:55;;;;;;;17.63;16.05;;;;;;;;;;5070699;28;20070;-60
2021/06/09 02:16:20;;;;;;;17.60;16.10;;;;;;;;;;5070242;28;20024;-61
2021/06/09 02:18:46;;;;;;;17.70;16.10;;;;;;;;;;5068876;28;20125;-60
2021/06/09 02:21:12;;;;;;;19.48;17.55;;;;;;;;;;5071605;28;20025;-61
2021/06/09 02:23:37;;;;;;;18.25;16.75;;;;;;;;;;5071472;28;20545;-60
2021/06/09 02:26:03;;;;;;;17.85;16.40;;;;;;;;;;5071561;28;20020;-60
2021/06/09 02:28:30;;;;;;;18.30;16.70;;;;;;;;;;5066912;28;20024;-61
2021/06/09 02:30:55;;;;;;;20.20;18.35;;;;;;;;;;5071725;28;20017;-60
2021/06/09 02:33:22;;;;;;;18.73;17.02;;;;;;;;;;5071925;28;20012;-61
2021/06/09 02:35:47;;;;;;;20.95;18.85;;;;;;;;;;5077887;28;20062;-61
2021/06/09 02:38:14;;;;;;;20.67;18.85;;;;;;;;;;5068512;28;20067;-60
2021/06/09 02:40:40;;;;;;;19.13;17.52;;;;;;;;;;5071106;28;20040;-61
2021/06/09 02:43:05;;;;;;;19.40;17.63;;;;;;;;;;5071410;28;20357;-61
2021/06/09 02:45:31;;;;;;;19.40;17.70;;;;;;;;;;5070289;28;20109;-60
2021/06/09 02:47:59;;;;;;;22.23;20.23;;;;;;;;;;5067554;28;20510;-61
2021/06/09 02:50:24;;;;;;;21.30;19.27;;;;;;;;;;5071657;28;20023;-60
2021/06/09 02:53:02;;;;;;;21.13;19.23;;;;;;;;;;5055312;28;20045;-60
2021/06/09 02:55:46;;;;;;;22.50;20.45;;;;;;;;;;5074932;28;20499;-60
2021/06/09 02:58:15;;;;;;;22.75;20.75;;;;;;;;;;5072234;28;20032;-60
2021/06/09 03:00:59;;;;;;;22.05;19.90;;;;;;;;;;5074952;28;20021;-61
2021/06/09 03:03:30;;;;;;;21.45;19.45;;;;;;;;;;5079464;28;20032;-61
2021/06/09 03:05:59;;;;;;;21.70;19.63;;;;;;;;;;5074005;28;20087;-61
2021/06/09 03:08:34;;;;;;;23.75;21.30;;;;;;;;;;5072116;28;20460;-60
2021/06/09 03:11:12;;;;;;;23.77;21.42;;;;;;;;;;5073861;28;20024;-60
2021/06/09 03:13:56;;;;;;;23.55;21.27;;;;;;;;;;5053706;28;20013;-60
2021/06/09 03:16:25;;;;;;;25.55;23.23;;;;;;;;;;5053595;28;20436;-60
2021/06/09 03:18:52;;;;;;;23.40;21.17;;;;;;;;;;5051673;28;20048;-60
2021/06/09 03:21:26;;;;;;;24.48;21.98;;;;;;;;;;5057072;28;20067;-61
2021/06/09 03:24:06;;;;;;;23.80;21.40;;;;;;;;;;5075056;28;20056;-60
2021/06/09 03:26:31;;;;;;;23.40;21.13;;;;;;;;;;5073525;28;20028;-60
2021/06/09 03:29:06;;;;;;;24.13;21.77;;;;;;;;;;5072277;28;20045;-60
2021/06/09 03:31:34;;;;;;;26.13;23.55;;;;;;;;;;5074223;28;20036;-60
2021/06/09 03:34:00;;;;;;;24.60;22.27;;;;;;;;;;5076466;28;20379;-60
2021/06/09 03:36:27;;;;;;;25.13;22.83;;;;;;;;;;5087117;28;20477;-60
2021/06/09 03:39:00;;;;;;;25.80;23.55;;;;;;;;;;5071310;28;20032;-61
2021/06/09 03:41:33;;;;;;;26.77;24.35;;;;;;;;;;5070096;28;20430;-61
2021/06/09 03:43:58;;;;;;;24.42;22.10;;;;;;;;;;5074066;28;20028;-60
2021/06/09 03:46:25;;;;;;;21.92;20.00;;;;;;;;;;5073967;28;20024;-60
2021/06/09 03:48:52;;;;;;;23.20;21.15;;;;;;;;;;5071283;28;20134;-61
2021/06/09 03:51:19;;;;;;;23.77;21.58;;;;;;;;;;5074000;28;20109;-60
2021/06/09 03:53:45;;;;;;;24.98;22.45;;;;;;;;;;5073823;28;20032;-60
2021/06/09 03:56:11;;;;;;;22.58;20.58;;;;;;;;;;5073552;28;20020;-60
2021/06/09 03:58:37;;;;;;;25.27;23.02;;;;;;;;;;5069703;28;20115;-61
2021/06/09 04:01:03;;;;;;;24.40;21.92;;;;;;;;;;5073705;28;20031;-61
2021/06/09 04:03:29;;;;;;;24.85;22.55;;;;;;;;;;5073033;28;20029;-61
2021/06/09 04:05:55;;;;;;;23.08;20.98;;;;;;;;;;5073947;28;20023;-61
2021/06/09 04:08:21;;;;;;;26.98;24.58;;;;;;;;;;5069604;28;20387;-61
2021/06/09 04:10:47;;;;;;;23.38;21.20;;;;;;;;;;5072917;28;20009;-61
2021/06/09 04:13:13;;;;;;;22.60;20.65;;;;;;;;;;5072183;28;20074;-61
2021/06/09 04:15:39;;;;;;;22.77;20.52;;;;;;;;;;5073731;28;20028;-61
2021/06/09 04:18:06;;;;;;;24.90;22.50;;;;;;;;;;5069177;28;20020;-61
2021/06/09 04:20:32;;;;;;;27.23;24.73;;;;;;;;;;5073656;28;20016;-61
2021/06/09 04:22:57;;;;;;;24.02;21.73;;;;;;;;;;5073732;28;20353;-61
2021/06/09 04:25:23;;;;;;;25.08;22.77;;;;;;;;;;5073032;28;20029;-61
2021/06/09 04:27:49;;;;;;;24.33;22.17;;;;;;;;;;5069657;28;20153;-61
2021/06/09 04:30:16;;;;;;;23.20;21.10;;;;;;;;;;5073175;28;20497;-61
2021/06/09 04:32:47;;;;;;;23.65;21.42;;;;;;;;;;5073184;28;20027;-61
2021/06/09 04:35:12;;;;;;;23.67;21.48;;;;;;;;;;5085470;28;20028;-61
2021/06/09 04:37:37;;;;;;;24.15;21.95;;;;;;;;;;5081577;28;20028;-61
2021/06/09 04:40:03;;;;;;;25.90;23.40;;;;;;;;;;5079177;28;20035;-61
2021/06/09 04:42:28;;;;;;;25.75;23.25;;;;;;;;;;5093085;28;20107;-61
2021/06/09 04:44:53;;;;;;;27.52;24.90;;;;;;;;;;5085590;28;20035;-61
2021/06/09 04:47:18;;;;;;;27.70;24.95;;;;;;;;;;5069871;28;20141;-60
2021/06/09 04:49:45;;;;;;;30.23;27.27;;;;;;;;;;5072894;28;20099;-61
2021/06/09 04:52:11;;;;;;;30.13;27.08;;;;;;;;;;5072612;28;20020;-61
2021/06/09 04:54:36;;;;;;;30.42;27.42;;;;;;;;;;5072884;28;20016;-61
2021/06/09 04:57:02;;;;;;;30.85;28.08;;;;;;;;;;5069528;28;20506;-61
2021/06/09 04:59:28;;;;;;;32.60;29.45;;;;;;;;;;5072531;28;20020;-61
2021/06/09 05:01:53;;;;;;;31.92;28.92;;;;;;;;;;5071715;28;20077;-61
2021/06/09 05:04:18;;;;;;;32.92;29.67;;;;;;;;;;5074733;28;20024;-61
2021/06/09 05:06:43;;;;;;;33.92;30.65;;;;;;;;;;5069390;28;20074;-61
2021/06/09 05:09:09;;;;;;;32.00;28.98;;;;;;;;;;5072157;28;20426;-60
2021/06/09 05:12:00;;;;;;;34.72;31.23;;;;;;;;;;5072149;28;20025;-60
2021/06/09 05:14:28;;;;;;;33.03;29.63;;;;;;;;;;5071376;28;20028;-61
2021/06/09 05:16:54;;;;;;;33.53;30.25;;;;;;;;;;5098656;28;20024;-61
2021/06/09 05:19:21;;;;;;;36.95;33.13;;;;;;;;;;5070754;28;20021;-60
2021/06/09 05:21:48;;;;;;;35.13;31.63;;;;;;;;;;5071830;28;20175;-61
2021/06/09 05:24:14;;;;;;;35.10;31.70;;;;;;;;;;5072020;28;20032;-61
2021/06/09 05:26:40;;;;;;;32.35;29.20;;;;;;;;;;5065348;28;20264;-62
2021/06/09 05:29:07;;;;;;;34.85;31.55;;;;;;;;;;5082271;28;20012;-61
2021/06/09 05:31:36;;;;;;;35.08;31.67;;;;;;;;;;5083726;28;20425;-60
2021/06/09 05:34:02;;;;;;;30.25;27.27;;;;;;;;;;5076373;28;20102;-61
2021/06/09 05:36:28;;;;;;;31.00;28.10;;;;;;;;;;5090307;28;20471;-59
2021/06/09 05:38:53;;;;;;;30.10;27.05;;;;;;;;;;5069400;28;20111;-61
2021/06/09 05:41:18;;;;;;;36.05;32.58;;;;;;;;;;5071791;28;20051;-61
2021/06/09 05:43:44;;;;;;;27.20;24.70;;;;;;;;;;5061814;28;20036;-61
2021/06/09 05:46:10;;;;;;;28.08;25.40;;;;;;;;;;5070964;28;20032;-61
2021/06/09 05:48:39;;;;;;;28.17;25.48;;;;;;;;;;5081938;28;20019;-61
2021/06/09 05:51:04;;;;;;;23.42;21.27;;;;;;;;;;5077439;28;20044;-61
2021/06/09 05:53:31;;;;;;;21.15;19.05;;;;;;;;;;5071718;28;20481;-60
2021/06/09 05:55:56;;;;;;;20.52;18.73;;;;;;;;;;5071916;28;20009;-60
2021/06/09 05:58:22;;;;;;;18.67;16.83;;;;;;;;;;5068766;28;20020;-60
2021/06/09 06:00:54;;;;;;;20.30;18.20;;;;;;;;;;5071498;28;20384;-60
2021/06/09 06:03:20;;;;;;;16.88;15.32;;;;;;;;;;5051962;28;20092;-60
2021/06/09 06:05:47;;;;;;;17.65;16.15;;;;;;;;;;5102390;28;20024;-61
2021/06/09 06:08:12;;;;;;;14.32;13.13;;;;;;;;;;5069111;28;20067;-61
2021/06/09 06:10:38;;;;;;;14.82;13.45;;;;;;;;;;5071435;28;20020;-61
2021/06/09 06:13:03;;;;;;;13.02;11.93;;;;;;;;;;5071768;28;20087;-60
2021/06/09 06:15:29;;;;;;;14.60;13.40;;;;;;;;;;5070575;28;20021;-60
2021/06/09 06:17:54;;;;;;;14.43;13.13;;;;;;;;;;5067291;28;20032;-60
2021/06/09 06:20:22;;;;;;;12.30;11.30;;;;;;;;;;5059932;28;20027;-60
2021/06/09 06:22:49;;;;;;;12.48;11.30;;;;;;;;;;5071152;28;20023;-61
2021/06/09 06:25:16;;;;;;;11.30;10.40;;;;;;;;;;5069662;28;20059;-60
2021/06/09 06:27:43;;;;;;;12.70;11.70;;;;;;;;;;5065967;28;20013;-60
2021/06/09 06:30:08;;;;;;;11.60;10.70;;;;;;;;;;5071619;28;20028;-61
2021/06/09 06:32:34;;;;;;;11.07;10.18;;;;;;;;;;5075041;28;20020;-60
2021/06/09 06:35:00;;;;;;;12.30;11.35;;;;;;;;;;5084166;28;20123;-60
2021/06/09 06:37:25;;;;;;;11.50;10.52;;;;;;;;;;5087398;28;20098;-60
2021/06/09 06:39:51;;;;;;;10.23;9.35;;;;;;;;;;5075222;28;20045;-59
2021/06/09 06:42:17;;;;;;;9.18;8.48;;;;;;;;;;5075135;28;20052;-60
2021/06/09 06:44:42;;;;;;;9.30;8.50;;;;;;;;;;5073934;28;20090;-60
2021/06/09 06:47:09;;;;;;;9.82;9.02;;;;;;;;;;5072310;28;20462;-60
2021/06/09 06:49:35;;;;;;;9.00;8.25;;;;;;;;;;5073768;28;20418;-60
2021/06/09 06:52:01;;;;;;;9.55;8.75;;;;;;;;;;5074999;28;20021;-60
2021/06/09 06:54:26;;;;;;;8.77;8.13;;;;;;;;;;5073959;28;20044;-60
2021/06/09 06:56:53;;;;;;;8.98;8.32;;;;;;;;;;5071958;28;20024;-60
2021/06/09 06:59:20;;;;;;;9.77;9.00;;;;;;;;;;5075075;28;20055;-60
2021/06/09 07:01:45;;;;;;;10.32;9.50;;;;;;;;;;5074571;28;20361;-60
2021/06/09 07:04:14;;;;;;;9.98;9.07;;;;;;;;;;5073687;28;20412;-60
2021/06/09 07:06:41;;;;;;;10.60;9.70;;;;;;;;;;5053503;28;20021;-60
2021/06/09 07:09:07;;;;;;;10.20;9.40;;;;;;;;;;5054127;28;20014;-59
2021/06/09 07:11:33;;;;;;;9.88;9.05;;;;;;;;;;5069451;28;20021;-61
2021/06/09 07:13:59;;;;;;;10.48;9.68;;;;;;;;;;5075154;28;20021;-60
2021/06/09 07:16:28;;;;;;;10.88;9.88;;;;;;;;;;5075128;28;20059;-60
2021/06/09 07:18:53;;;;;;;11.13;10.15;;;;;;;;;;5078551;28;20360;-60
2021/06/09 07:21:22;;;;;;;10.07;9.25;;;;;;;;;;5095037;28;20023;-60
2021/06/09 07:23:48;;;;;;;11.43;10.38;;;;;;;;;;5075444;28;20043;-60
2021/06/09 07:26:14;;;;;;;10.95;9.95;;;;;;;;;;5074139;28;20020;-60
2021/06/09 07:28:46;;;;;;;12.43;11.23;;;;;;;;;;5071311;28;20032;-60
2021/06/09 07:31:13;;;;;;;11.70;10.70;;;;;;;;;;5106940;28;20017;-61
2021/06/09 07:33:39;;;;;;;10.95;9.98;;;;;;;;;;5074259;28;20070;-60
2021/06/09 07:36:06;;;;;;;10.60;9.60;;;;;;;;;;5094171;28;20422;-60
2021/06/09 07:38:34;;;;;;;10.93;9.85;;;;;;;;;;5089262;28;20402;-60
2021/06/09 07:41:01;;;;;;;10.18;9.25;;;;;;;;;;5093613;28;20039;-60
2021/06/09 07:43:33;;;;;;;11.55;10.48;;;;;;;;;;5079493;28;20021;-59
2021/06/09 07:45:58;;;;;;;11.27;10.30;;;;;;;;;;5074471;28;20021;-60
2021/06/09 07:48:26;;;;;;;11.50;10.50;;;;;;;;;;5069354;28;20021;-60
2021/06/09 07:50:55;;;;;;;10.00;9.10;;;;;;;;;;5072656;28;20021;-60
2021/06/09 07:53:21;;;;;;;11.23;10.32;;;;;;;;;;5073709;28;20048;-60
2021/06/09 07:55:48;;;;;;;10.20;9.13;;;;;;;;;;5062639;28;20055;-60
2021/06/09 07:58:18;;;;;;;10.32;9.30;;;;;;;;;;5071102;28;20078;-60
2021/06/09 08:00:43;;;;;;;9.80;9.00;;;;;;;;;;5072621;28;20013;-60
2021/06/09 08:03:09;;;;;;;9.98;9.02;;;;;;;;;;5072495;28;20023;-60
2021/06/09 08:05:37;;;;;;;9.40;8.60;;;;;;;;;;5073944;28;20104;-60
2021/06/09 08:08:03;;;;;;;10.38;9.45;;;;;;;;;;5103622;28;20074;-60
2021/06/09 08:10:28;;;;;;;10.93;9.65;;;;;;;;;;5073626;28;20020;-61
2021/06/09 08:12:54;;;;;;;9.95;9.15;;;;;;;;;;5073416;28;20029;-60
2021/06/09 08:15:20;;;;;;;9.45;8.63;;;;;;;;;;5079436;28;20068;-60
2021/06/09 08:17:45;;;;;;;8.88;8.13;;;;;;;;;;5090584;28;20477;-60
2021/06/09 08:20:13;;;;;;;8.48;7.78;;;;;;;;;;5070798;28;20024;-60
2021/06/09 08:22:41;;;;;;;11.10;10.10;;;;;;;;;;5069634;28;20024;-60
2021/06/09 08:25:06;;;;;;;10.10;9.30;;;;;;;;;;5073190;28;20029;-59
2021/06/09 08:27:31;;;;;;;10.75;9.85;;;;;;;;;;5066055;28;20107;-60
2021/06/09 08:29:56;;;;;;;10.13;9.32;;;;;;;;;;5077439;28;20074;-60
2021/06/09 08:32:22;;;;;;;10.00;9.20;;;;;;;;;;5073085;28;20028;-60
2021/06/09 08:34:47;;;;;;;9.43;8.73;;;;;;;;;;5073675;28;20036;-60
2021/06/09 08:37:12;;;;;;;10.77;9.77;;;;;;;;;;5068409;28;20021;-60
2021/06/09 08:39:37;;;;;;;10.93;10.02;;;;;;;;;;5062155;28;20115;-60
2021/06/09 08:42:03;;;;;;;10.60;9.65;;;;;;;;;;5072933;28;20104;-59
2021/06/09 08:44:29;;;;;;;10.38;9.55;;;;;;;;;;5072839;28;20042;-59
2021/06/09 08:46:57;;;;;;;9.77;9.05;;;;;;;;;;5065466;28;20017;-59
2021/06/09 08:49:23;;;;;;;8.90;8.20;;;;;;;;;;5052920;28;20127;-60
2021/06/09 08:51:49;;;;;;;9.45;8.52;;;;;;;;;;5071203;28;20025;-59
2021/06/09 08:54:15;;;;;;;8.65;7.90;;;;;;;;;;5072657;28;20020;-62
2021/06/09 08:56:40;;;;;;;8.80;8.00;;;;;;;;;;5052434;28;20128;-60
2021/06/09 08:59:06;;;;;;;7.53;6.93;;;;;;;;;;5069137;28;20031;-60
2021/06/09 09:01:33;;;;;;;8.07;7.38;;;;;;;;;;5072505;28;20042;-60
2021/06/09 09:03:58;;;;;;;7.32;6.72;;;;;;;;;;5062933;28;20017;-59
2021/06/09 09:06:24;;;;;;;6.95;6.35;;;;;;;;;;5067145;28;20035;-58
2021/06/09 09:08:49;;;;;;;7.10;6.60;;;;;;;;;;5068333;28;20023;-59
2021/06/09 09:11:14;;;;;;;7.63;7.13;;;;;;;;;;5072193;28;20537;-59
2021/06/09 09:13:41;;;;;;;7.93;7.10;;;;;;;;;;5072239;28;20095;-59
2021/06/09 09:16:06;;;;;;;7.20;6.60;;;;;;;;;;5071117;28;20074;-59
2021/06/09 09:18:37;;;;;;;7.03;6.43;;;;;;;;;;5072230;28;20020;-59
2021/06/09 09:21:02;;;;;;;7.28;6.68;;;;;;;;;;5086778;28;20025;-59
2021/06/09 09:23:32;;;;;;;7.10;6.50;;;;;;;;;;5052379;28;20096;-60
2021/06/09 09:25:58;;;;;;;6.53;6.03;;;;;;;;;;5062702;28;20032;-60
2021/06/09 09:28:25;;;;;;;7.38;6.78;;;;;;;;;;5068500;28;20029;-60
2021/06/09 09:30:51;;;;;;;6.78;6.28;;;;;;;;;;5070061;28;20488;-60
2021/06/09 09:33:17;;;;;;;6.95;6.25;;;;;;;;;;5092239;28;20051;-60
2021/06/09 09:35:44;;;;;;;7.18;6.65;;;;;;;;;;5091952;28;20476;-60
2021/06/09 09:38:10;;;;;;;6.68;6.22;;;;;;;;;;5071625;28;20027;-60
2021/06/09 09:40:36;;;;;;;6.80;6.20;;;;;;;;;;5073617;28;20036;-60
2021/06/09 09:43:01;;;;;;;6.80;6.18;;;;;;;;;;5056298;28;20110;-60
2021/06/09 09:45:28;;;;;;;6.20;5.80;;;;;;;;;;5062944;28;20063;-61
2021/06/09 09:48:13;;;;;;;6.90;5.97;;;;;;;;;;5058514;28;20020;-59
2021/06/09 09:50:40;;;;;;;6.00;5.50;;;;;;;;;;5076453;28;20376;-59
2021/06/09 09:53:18;;;;;;;6.82;6.25;;;;;;;;;;5071835;28;20021;-60
2021/06/09 09:55:55;;;;;;;6.40;5.90;;;;;;;;;;5059369;28;20556;-59
2021/06/09 09:58:20;;;;;;;7.00;6.45;;;;;;;;;;5068574;28;20012;-60
2021/06/09 10:00:45;;;;;;;6.70;6.20;;;;;;;;;;5055882;28;20290;-59
2021/06/09 10:03:11;;;;;;;5.43;4.88;;;;;;;;;;5066230;28;20029;-60
2021/06/09 10:05:37;;;;;;;5.82;5.32;;;;;;;;;;5066741;28;20025;-60
2021/06/09 10:08:05;;;;;;;5.80;5.30;;;;;;;;;;5063721;28;20391;-60
2021/06/09 10:10:31;;;;;;;5.25;4.75;;;;;;;;;;5075965;28;20024;-60
2021/06/09 10:13:09;;;;;;;4.78;4.43;;;;;;;;;;5091732;28;20023;-60
2021/06/09 10:15:36;;;;;;;5.57;5.18;;;;;;;;;;5083625;28;20380;-60
2021/06/09 10:18:33;;;;;;;6.80;6.20;;;;;;;;;;5068000;28;20024;-60
2021/06/09 10:21:10;;;;;;;6.38;5.97;;;;;;;;;;5052295;28;20040;-60
2021/06/09 10:23:36;;;;;;;5.43;4.93;;;;;;;;;;5070743;28;20012;-60
2021/06/09 10:26:04;;;;;;;7.47;6.20;;;;;;;;;;5091730;28;20090;-59
2021/06/09 10:28:45;;;;;;;6.28;5.80;;;;;;;;;;5088812;28;20486;-59
2021/06/09 10:31:11;;;;;;;5.75;5.35;;;;;;;;;;5081429;28;20016;-59
2021/06/09 10:33:36;;;;;;;5.05;4.70;;;;;;;;;;5059211;28;20032;-59
2021/06/09 10:36:02;;;;;;;5.65;5.25;;;;;;;;;;5089885;28;20024;-60
2021/06/09 10:38:27;;;;;;;4.85;4.15;;;;;;;;;;5079223;28;20020;-60
2021/06/09 10:40:53;;;;;;;5.18;4.78;;;;;;;;;;5070817;28;20117;-59
2021/06/09 10:43:19;;;;;;;5.05;4.72;;;;;;;;;;5071398;28;20055;-60
2021/06/09 10:45:45;;;;;;;3.78;3.58;;;;;;;;;;5071722;28;20051;-60
2021/06/09 10:48:13;;;;;;;4.95;4.18;;;;;;;;;;5070902;28;20021;-61
2021/06/09 10:50:40;;;;;;;5.03;4.65;;;;;;;;;;5063537;28;20025;-61
2021/06/09 10:53:06;;;;;;;7.18;4.35;;;;;;;;;;5053266;28;20477;-61
2021/06/09 10:55:31;;;;;;;4.13;3.83;;;;;;;;;;5090193;28;20058;-60
2021/06/09 10:57:57;;;;;;;4.60;4.20;;;;;;;;;;5087358;28;20051;-61
2021/06/09 11:00:22;;;;;;;4.70;4.30;;;;;;;;;;5071518;28;20033;-60
2021/06/09 11:02:48;;;;;;;3.72;3.42;;;;;;;;;;5070405;28;20384;-61
2021/06/09 11:05:14;;;;;;;4.32;3.65;;;;;;;;;;5079310;28;20012;-61
2021/06/09 11:07:41;;;;;;;3.90;3.70;;;;;;;;;;5065588;28;20025;-61
2021/06/09 11:10:08;;;;;;;3.72;3.42;;;;;;;;;;5062386;28;20028;-61
2021/06/09 11:12:43;;;;;;;4.00;3.80;;;;;;;;;;5091244;28;20013;-61
2021/06/09 11:15:13;;;;;;;4.07;3.78;;;;;;;;;;5083088;28;20020;-60
2021/06/09 11:17:39;;;;;;;3.83;3.50;;;;;;;;;;5071843;28;20016;-59
2021/06/09 11:20:33;;;;;;;4.15;3.88;;;;;;;;;;5074608;28;20074;-60
2021/06/09 11:23:04;;;;;;;5.40;5.03;;;;;;;;;;5064843;28;20041;-60
2021/06/09 11:25:40;;;;;;;5.20;4.70;;;;;;;;;;5073581;28;20050;-59
2021/06/09 11:28:10;;;;;;;5.60;5.10;;;;;;;;;;5071736;28;20021;-60
2021/06/09 11:30:38;;;;;;;4.90;4.50;;;;;;;;;;5074332;28;20020;-60
2021/06/09 11:33:05;;;;;;;4.63;4.32;;;;;;;;;;5075165;28;20277;-61
2021/06/09 11:35:42;;;;;;;4.30;3.90;;;;;;;;;;5085338;28;20077;-61
2021/06/09 11:38:11;;;;;;;4.03;3.72;;;;;;;;;;5090526;28;20020;-60
2021/06/09 11:40:55;;;;;;;4.45;4.07;;;;;;;;;;5094169;28;20044;-60
2021/06/09 11:43:20;;;;;;;3.90;3.60;;;;;;;;;;5089149;28;20126;-60
2021/06/09 11:45:51;;;;;;;5.00;4.05;;;;;;;;;;5072562;28;20554;-60
2021/06/09 11:48:18;;;;;;;12.05;4.05;;;;;;;;;;5065596;28;20016;-60
2021/06/09 11:50:43;;;;;;;3.78;3.53;;;;;;;;;;5074166;28;20532;-60
2021/06/09 11:53:20;;;;;;;4.13;3.72;;;;;;;;;;5074397;28;20016;-61
2021/06/09 11:56:05;;;;;;;3.60;3.25;;;;;;;;;;5074867;28;20052;-61
2021/06/09 11:58:35;;;;;;;3.45;3.25;;;;;;;;;;5068934;28;20031;-60
2021/06/09 12:01:05;;;;;;;3.55;3.25;;;;;;;;;;5073932;28;20028;-60
2021/06/09 12:03:30;;;;;;;4.30;3.28;;;;;;;;;;5074005;28;20103;-60
2021/06/09 12:06:09;;;;;;;4.65;3.15;;;;;;;;;;5073749;28;20103;-60
2021/06/09 12:08:34;;;;;;;3.10;2.90;;;;;;;;;;5070347;28;20024;-61
2021/06/09 12:11:00;;;;;;;3.17;2.97;;;;;;;;;;5082823;28;20024;-60
2021/06/09 12:13:28;;;;;;;3.37;3.07;;;;;;;;;;5074041;28;20020;-60
2021/06/09 12:16:21;;;;;;;3.40;2.90;;;;;;;;;;5071639;28;20267;-60
2021/06/09 12:18:47;;;;;;;5.30;3.50;;;;;;;;;;5066557;28;20076;-60
2021/06/09 12:21:14;;;;;;;4.47;4.18;;;;;;;;;;5088084;28;20372;-60
2021/06/09 12:23:51;;;;;;;4.72;4.32;;;;;;;;;;5072836;28;20103;-60
2021/06/09 12:26:16;;;;;;;4.40;4.10;;;;;;;;;;5089674;28;20391;-60
2021/06/09 12:28:42;;;;;;;4.65;4.35;;;;;;;;;;5074699;28;20012;-60
2021/06/09 12:31:11;;;;;;;4.50;4.20;;;;;;;;;;5061971;28;20502;-60
2021/06/09 12:33:40;;;;;;;4.68;4.35;;;;;;;;;;5068512;28;20027;-60
2021/06/09 12:36:06;;;;;;;4.57;4.28;;;;;;;;;;5079047;28;20021;-60
2021/06/09 12:38:32;;;;;;;4.47;4.18;;;;;;;;;;5069264;28;20423;-60
2021/06/09 12:40:57;;;;;;;5.10;4.20;;;;;;;;;;5073074;28;20474;-60
2021/06/09 12:43:25;;;;;;;4.45;4.05;;;;;;;;;;5072902;28;20630;-60
2021/06/09 12:45:51;;;;;;;4.57;4.28;;;;;;;;;;5073297;28;20031;-60
2021/06/09 12:48:18;;;;;;;4.50;4.15;;;;;;;;;;5069099;28;20171;-60
2021/06/09 12:50:50;;;;;;;3.90;3.60;;;;;;;;;;5071897;28;20373;-60
2021/06/09 12:53:17;;;;;;;4.53;4.18;;;;;;;;;;5072939;28;20348;-60
2021/06/09 12:55:44;;;;;;;4.13;3.83;;;;;;;;;;5072139;28;20023;-60
2021/06/09 12:58:11;;;;;;;3.80;3.50;;;;;;;;;;5069676;28;20434;-61
2021/06/09 13:00:55;;;;;;;4.22;3.80;;;;;;;;;;5072568;28;20031;-59
2021/06/09 13:03:23;;;;;;;4.40;4.00;;;;;;;;;;5072461;28;20545;-61
2021/06/09 13:05:51;;;;;;;4.45;4.07;;;;;;;;;;5071993;28;20068;-61
2021/06/09 13:08:20;;;;;;;4.20;3.90;;;;;;;;;;5068518;28;20212;-61
2021/06/09 13:10:46;;;;;;;5.60;4.18;;;;;;;;;;5072343;28;20024;-61
2021/06/09 13:13:13;;;;;;;4.10;3.78;;;;;;;;;;5070384;28;20009;-59
2021/06/09 13:15:38;;;;;;;4.03;3.72;;;;;;;;;;5072148;28;20027;-59
2021/06/09 13:18:07;;;;;;;4.25;3.78;;;;;;;;;;5069168;28;20024;-59
2021/06/09 13:20:33;;;;;;;4.53;4.00;;;;;;;;;;5079363;28;20103;-59
2021/06/09 13:22:58;;;;;;;4.82;3.85;;;;;;;;;;5071117;28;20020;-59
2021/06/09 13:25:30;;;;;;;4.63;4.30;;;;;;;;;;5071138;28;20040;-60
2021/06/09 13:27:56;;;;;;;4.75;4.45;;;;;;;;;;5068069;28;20069;-60
2021/06/09 13:30:23;;;;;;;4.20;3.88;;;;;;;;;;5072350;28;20024;-60
2021/06/09 13:32:49;;;;;;;4.03;3.60;;;;;;;;;;5070567;28;20020;-60
2021/06/09 13:35:16;;;;;;;4.15;3.88;;;;;;;;;;5069294;28;20055;-60
2021/06/09 13:37:45;;;;;;;7.75;4.20;;;;;;;;;;5069300;28;20119;-60
2021/06/09 13:40:15;;;;;;;4.00;3.65;;;;;;;;;;5070448;28;20078;-60
2021/06/09 13:42:43;;;;;;;4.00;3.70;;;;;;;;;;5069778;28;20028;-60
2021/06/09 13:45:19;;;;;;;5.53;3.42;;;;;;;;;;5069842;28;20371;-61
2021/06/09 13:47:44;;;;;;;3.75;3.50;;;;;;;;;;5067901;28;20460;-61
2021/06/09 13:50:15;;;;;;;3.58;3.28;;;;;;;;;;5070279;28;20085;-61
2021/06/09 13:52:41;;;;;;;3.97;3.67;;;;;;;;;;5069160;28;20009;-61
2021/06/09 13:55:07;;;;;;;6.90;3.63;;;;;;;;;;5071139;28;20024;-61
2021/06/09 13:57:35;;;;;;;3.42;3.13;;;;;;;;;;5065189;28;20016;-61
2021/06/09 14:00:02;;;;;;;3.85;3.55;;;;;;;;;;5068796;28;20028;-61
2021/06/09 14:02:31;;;;;;;2.92;2.72;;;;;;;;;;5067438;28;20017;-61
2021/06/09 14:05:05;;;;;;;4.22;3.38;;;;;;;;;;5069735;28;20460;-61
2021/06/09 14:07:36;;;;;;;3.05;2.88;;;;;;;;;;5068271;28;20035;-60
2021/06/09 14:10:03;;;;;;;3.00;2.80;;;;;;;;;;5069265;28;20086;-60
2021/06/09 14:12:39;;;;;;;3.83;2.90;;;;;;;;;;5070305;28;20027;-59
2021/06/09 14:15:05;;;;;;;3.60;3.40;;;;;;;;;;5069465;28;20406;-59
2021/06/09 14:17:31;;;;;;;4.60;2.80;;;;;;;;;;5064380;28;20025;-59
2021/06/09 14:19:58;;;;;;;3.05;2.85;;;;;;;;;;5067763;28;20023;-59
2021/06/09 14:22:25;;;;;;;3.50;3.22;;;;;;;;;;5071920;28;20048;-59
2021/06/09 14:24:50;;;;;;;2.97;2.78;;;;;;;;;;5070286;28;20052;-59
2021/06/09 14:27:16;;;;;;;3.40;3.20;;;;;;;;;;5066123;28;20492;-59
2021/06/09 14:29:41;;;;;;;3.03;2.83;;;;;;;;;;5070976;28;20353;-59
2021/06/09 14:32:13;;;;;;;3.08;2.88;;;;;;;;;;5070175;28;20021;-59